Time;durP1;ratioP1;P1;durP2;ratioP2;P2;SDS_P1;SDS_P2;PMS_P1;PMS_P2;Temp;Humidity;BMP_temperature;BMP_pressure;BME280_temperature;BME280_humidity;BME280_pressure;Samples;Min_cycle;Max_cycle;Signal;HPM_P1;HPM_P2
2022/12/17 13:06:03;;;;;;;2.03;1.27;;;;;;;10.80;70.70;101392.28;5070311;28;20090;-82
2022/12/17 13:08:28;;;;;;;2.03;1.35;;;;;;;10.71;70.55;101408.13;5053465;28;20456;-81
2022/12/17 13:10:54;;;;;;;2.38;1.38;;;;;;;10.72;70.16;101417.63;5053462;28;20025;-82
2022/12/17 13:13:33;;;;;;;1.40;1.10;;;;;;;10.66;70.79;101405.75;5053585;28;20075;-81
2022/12/17 13:16:02;;;;;;;2.58;1.92;;;;;;;10.71;70.83;101431.44;5036962;28;20029;-81
2022/12/17 13:18:33;;;;;;;3.55;1.33;;;;;;;10.65;70.63;101424.75;5036348;28;20056;-81
2022/12/17 13:21:04;;;;;;;2.70;1.33;;;;;;;10.66;70.79;101412.66;5053972;28;20063;-81
2022/12/17 13:23:34;;;;;;;2.50;1.85;;;;;;;10.70;70.58;101437.50;5070012;28;20047;-81
2022/12/17 13:26:42;;;;;;;4.45;1.70;;;;;;;10.63;70.25;101442.94;5037011;28;20115;-81
2022/12/17 13:29:16;;;;;;;3.55;1.90;;;;;;;10.60;69.84;101448.19;5053008;28;20033;-82
2022/12/17 13:31:45;;;;;;;3.25;1.38;;;;;;;10.45;68.99;101428.06;5053145;28;20059;-81
2022/12/17 13:34:21;;;;;;;3.40;2.10;;;;;;;10.47;68.71;101452.13;5069190;28;20036;-81
2022/12/17 13:36:59;;;;;;;3.35;1.85;;;;;;;10.39;69.50;101463.63;5036789;28;20035;-81
2022/12/17 13:39:42;;;;;;;3.40;2.08;;;;;;;10.30;69.01;101480.31;5070862;28;20063;-81
2022/12/17 13:42:17;;;;;;;;;;;;;;;10.17;70.17;101486.78;5070129;28;20543;-81
2022/12/17 13:44:43;;;;;;;3.20;2.13;;;;;;;10.02;70.55;101476.03;5052827;28;20381;-81
2022/12/17 13:47:29;;;;;;;4.25;2.17;;;;;;;10.04;70.54;101509.59;5052789;28;20028;-81
2022/12/17 13:49:56;;;;;;;5.85;2.90;;;;;;;9.75;70.32;101492.44;5052845;28;20387;-81
2022/12/17 13:52:26;;;;;;;1.13;1.02;;;;;;;9.81;70.62;101518.06;5052909;28;20032;-81
2022/12/17 13:54:52;;;;;;;3.08;1.75;;;;;;;9.63;69.93;101513.47;5053020;28;20033;-81
2022/12/17 13:57:22;;;;;;;3.60;2.30;;;;;;;9.68;70.24;101532.28;5036118;28;20024;-81
2022/12/17 13:59:58;;;;;;;1.45;1.23;;;;;;;9.60;71.05;101531.66;5069437;28;20036;-81
2022/12/17 14:02:31;;;;;;;5.00;2.55;;;;;;;9.59;71.50;101533.41;5035946;28;20568;-81
2022/12/17 14:04:58;;;;;;;5.22;2.33;;;;;;;9.47;71.08;101544.13;5053164;28;20031;-81
2022/12/17 14:07:25;;;;;;;3.03;1.80;;;;;;;9.44;70.73;101545.06;5069338;28;20027;-81
2022/12/17 14:09:50;;;;;;;4.45;2.47;;;;;;;9.18;70.87;101526.88;5069411;28;20132;-82
2022/12/17 14:12:22;;;;;;;3.35;2.28;;;;;;;9.25;70.79;101559.41;5052404;28;20119;-81
2022/12/17 14:15:17;;;;;;;2.08;1.67;;;;;;;9.23;70.97;101571.47;5041647;28;20444;-81
2022/12/17 14:17:48;;;;;;;9.35;2.47;;;;;;;9.09;71.30;101563.28;5067974;28;20559;-82
2022/12/17 14:20:40;;;;;;;3.28;1.80;;;;;;;9.10;72.05;101583.88;5056462;28;20073;-81
2022/12/17 14:23:27;;;;;;;2.97;1.83;;;;;;;9.04;72.22;101586.63;5071843;28;20075;-81
2022/12/17 14:25:52;;;;;;;5.60;2.88;;;;;;;8.88;71.83;101567.31;5055000;28;20028;-82
2022/12/17 14:28:29;;;;;;;3.95;2.08;;;;;;;8.90;71.37;101589.59;5073419;28;20032;-81
2022/12/17 14:31:14;;;;;;;1.88;1.67;;;;;;;8.77;70.98;101580.50;5040491;28;20029;-81
2022/12/17 14:33:41;;;;;;;8.32;1.95;;;;;;;8.79;72.07;101601.94;5057462;28;20494;-81
2022/12/17 14:36:18;;;;;;;7.63;3.20;;;;;;;8.75;72.36;101600.34;5056442;28;20028;-82
2022/12/17 14:39:00;;;;;;;4.75;2.85;;;;;;;8.77;72.11;101608.03;5073257;28;20512;-82
2022/12/17 14:44:20;;;;;;;2.97;2.00;;;;;;;8.67;71.88;101622.91;5073211;28;20036;-81
2022/12/17 14:46:46;;;;;;;4.03;2.75;;;;;;;8.47;72.69;101630.28;5056471;28;20020;-82
2022/12/17 14:49:16;;;;;;;8.35;3.83;;;;;;;8.49;72.53;101638.81;5039559;28;20413;-81
2022/12/17 14:51:42;;;;;;;5.10;3.53;;;;;;;8.41;73.18;101641.56;5056087;28;20032;-81
2022/12/17 14:54:13;;;;;;;7.25;4.22;;;;;;;8.38;73.05;101645.97;5039419;28;20086;-81
2022/12/17 14:56:40;;;;;;;3.95;3.35;;;;;;;8.23;72.89;101632.50;5072281;28;20029;-81
2022/12/17 14:59:20;;;;;;;4.50;3.10;;;;;;;8.31;72.91;101648.63;5056370;28;20028;-82
2022/12/17 15:01:46;;;;;;;7.57;4.38;;;;;;;8.28;73.08;101646.16;5055950;28;20060;-81
2022/12/17 15:04:12;;;;;;;4.75;3.08;;;;;;;8.23;72.80;101632.50;5055797;28;20091;-81
2022/12/17 15:06:37;;;;;;;4.75;2.90;;;;;;;8.26;72.67;101655.66;5055974;28;20516;-81
2022/12/17 15:09:03;;;;;;;5.00;3.25;;;;;;;8.27;72.98;101665.06;5039198;28;20025;-81
2022/12/17 15:11:28;;;;;;;6.07;2.75;;;;;;;8.20;73.00;101671.25;5055827;28;20024;-81
2022/12/17 15:13:54;;;;;;;5.70;3.33;;;;;;;8.10;73.34;101659.44;5055545;28;20032;-81
2022/12/17 15:16:20;;;;;;;5.55;5.05;;;;;;;8.02;73.16;101658.75;5072423;28;20025;-81
2022/12/17 15:18:45;;;;;;;5.10;3.53;;;;;;;8.04;73.27;101677.59;5038782;28;20045;-81
2022/12/17 15:21:11;;;;;;;7.63;4.15;;;;;;;7.88;72.92;101668.53;5038959;28;20029;-81
2022/12/17 15:23:38;;;;;;;8.23;4.20;;;;;;;7.89;73.03;101683.09;5055100;28;20043;-82
2022/12/17 15:26:04;;;;;;;6.00;3.83;;;;;;;7.69;73.07;101671.47;5055337;28;20093;-81
2022/12/17 15:28:29;;;;;;;8.90;4.78;;;;;;;7.64;72.55;101662.13;5071542;28;20025;-81
2022/12/17 15:30:55;;;;;;;6.72;4.78;;;;;;;7.67;72.53;101690.41;5055253;28;20040;-82
2022/12/17 15:33:20;;;;;;;8.20;4.30;;;;;;;7.61;72.37;101693.97;5038661;28;20509;-81
2022/12/17 15:35:46;;;;;;;8.52;4.00;;;;;;;7.40;72.79;101668.63;5055282;28;20509;-81
2022/12/17 15:38:11;;;;;;;7.43;3.90;;;;;;;7.33;72.40;101667.88;5055434;28;20033;-81
2022/12/17 15:40:37;;;;;;;3.40;1.95;;;;;;;7.44;72.73;101691.69;5071962;28;20024;-82
2022/12/17 15:43:11;;;;;;;9.35;6.20;;;;;;;7.42;72.86;101698.59;5054892;28;20081;-81
2022/12/17 15:45:41;;;;;;;7.18;5.13;;;;;;;7.44;72.50;101703.72;5071588;28;20119;-81
2022/12/17 15:48:08;;;;;;;7.97;5.15;;;;;;;7.38;72.02;101688.41;5038725;28;20434;-81
2022/12/17 15:50:33;;;;;;;8.63;5.07;;;;;;;7.37;72.68;101708.13;5071493;28;20036;-81
2022/12/17 15:52:59;;;;;;;9.65;5.72;;;;;;;7.14;72.39;101693.13;5071626;28;20029;-81
2022/12/17 15:55:24;;;;;;;6.55;5.07;;;;;;;7.39;72.36;101723.56;5055063;28;20482;-82
2022/12/17 15:57:50;;;;;;;14.63;4.75;;;;;;;7.24;72.27;101709.25;5037990;28;20123;-82
2022/12/17 16:00:15;;;;;;;6.90;4.22;;;;;;;7.19;72.58;101711.06;5071859;28;20021;-81
2022/12/17 16:02:41;;;;;;;21.00;7.15;;;;;;;6.79;72.55;101669.72;5054844;28;20039;-81
2022/12/17 16:05:07;;;;;;;14.48;6.53;;;;;;;7.02;72.67;101703.63;5054793;28;20039;-81
2022/12/17 16:07:32;;;;;;;11.73;6.22;;;;;;;7.15;73.02;101722.25;5071344;28;20174;-81
2022/12/17 16:09:58;;;;;;;8.40;5.88;;;;;;;7.10;73.12;101722.34;5054823;28;20032;-81
2022/12/17 16:12:23;;;;;;;15.02;6.32;;;;;;;7.13;73.83;101742.88;5070943;28;20020;-82
2022/12/17 16:14:49;;;;;;;8.55;6.47;;;;;;;7.13;73.15;101742.03;5071390;28;20024;-81
2022/12/17 16:17:14;;;;;;;9.05;5.82;;;;;;;6.95;73.36;101719.19;5054381;28;20029;-82
2022/12/17 16:19:40;;;;;;;6.57;4.30;;;;;;;7.03;73.51;101731.03;5071024;28;20544;-81
2022/12/17 16:22:05;;;;;;;10.65;5.72;;;;;;;7.03;73.17;101737.91;5054324;28;20028;-81
2022/12/17 16:24:31;;;;;;;8.82;4.68;;;;;;;6.93;73.17;101774.97;5054431;28;20078;-82
2022/12/17 16:26:56;;;;;;;11.57;5.45;;;;;;;6.79;73.27;101757.19;5053864;28;20472;-82
2022/12/17 16:29:22;;;;;;;8.65;4.95;;;;;;;6.89;73.00;101785.31;5070974;28;20033;-81
2022/12/17 16:31:48;;;;;;;7.25;4.72;;;;;;;6.75;73.13;101770.94;5037653;28;20115;-81
2022/12/17 16:34:14;;;;;;;9.30;5.80;;;;;;;6.54;73.10;101760.09;5053992;28;20111;-81
2022/12/17 16:36:39;;;;;;;8.35;4.75;;;;;;;6.72;73.54;101794.13;5053322;28;20119;-82
2022/12/17 16:39:05;;;;;;;12.77;6.15;;;;;;;6.54;73.33;101777.25;5054537;28;20028;-81
2022/12/17 16:41:31;;;;;;;10.30;4.38;;;;;;;6.53;73.35;101778.13;5070217;28;20035;-81
2022/12/17 16:43:56;;;;;;;10.93;6.55;;;;;;;6.41;73.32;101781.72;5053823;28;20021;-81
2022/12/17 16:46:33;;;;;;;20.58;4.63;;;;;;;6.49;73.13;101797.00;5070529;28;20028;-81
2022/12/17 16:49:03;;;;;;;10.48;5.65;;;;;;;6.52;73.25;101813.25;5055339;28;20398;-82
2022/12/17 16:51:28;;;;;;;16.10;8.75;;;;;;;6.38;73.02;101802.28;5054275;28;20027;-81
2022/12/17 16:53:54;;;;;;;11.00;5.30;;;;;;;6.46;73.34;101818.47;5037198;28;20029;-81
2022/12/17 16:56:26;;;;;;;6.70;4.43;;;;;;;6.40;73.60;101816.00;5053298;28;20450;-81
2022/12/17 16:58:53;;;;;;;5.10;4.38;;;;;;;6.31;73.74;101813.53;5053886;28;20035;-81
2022/12/17 17:01:19;;;;;;;5.45;4.10;;;;;;;6.24;73.68;101811.91;5037222;28;20143;-81
2022/12/17 17:03:45;;;;;;;22.45;8.25;;;;;;;6.17;73.75;101817.97;5037201;28;20032;-81
2022/12/17 17:06:10;;;;;;;2.92;2.72;;;;;;;6.13;73.77;101813.75;5036963;28;20033;-82
2022/12/17 17:08:36;;;;;;;7.13;5.10;;;;;;;6.14;73.83;101828.31;5070251;28;20056;-81
2022/12/17 17:11:12;;;;;;;8.27;5.55;;;;;;;6.22;73.64;101829.06;5053663;28;20032;-82
2022/12/17 17:13:38;;;;;;;9.63;6.10;;;;;;;6.04;73.19;101818.13;5053954;28;20069;-81
2022/12/17 17:16:04;;;;;;;13.13;7.00;;;;;;;5.90;74.00;101796.91;5053492;28;20033;-81
2022/12/17 17:18:30;;;;;;;8.15;5.85;;;;;;;6.18;73.67;101842.81;5069461;28;20444;-81
2022/12/17 17:21:33;;;;;;;8.57;5.15;;;;;;;6.04;73.28;101825.84;5036632;28;20063;-81
2022/12/17 17:24:01;;;;;;;9.50;5.75;;;;;;;6.00;73.40;101837.03;5066892;28;20037;-80
2022/12/17 17:26:28;;;;;;;9.27;5.80;;;;;;;6.14;73.35;101844.56;5053218;28;20049;-81
2022/12/17 17:28:54;;;;;;;11.93;6.15;;;;;;;6.05;73.42;101860.06;5036531;28;20029;-81
2022/12/17 17:31:20;;;;;;;7.50;5.15;;;;;;;6.02;73.50;101858.41;5052938;28;20036;-81
2022/12/17 17:33:47;;;;;;;7.53;6.05;;;;;;;5.97;73.30;101867.00;5036478;28;20468;-81
2022/12/17 17:36:16;;;;;;;13.95;7.22;;;;;;;5.85;72.90;101854.25;5053355;28;20035;-81
2022/12/17 17:38:41;;;;;;;8.65;4.45;;;;;;;5.96;73.20;101885.84;5036383;28;20490;-81
2022/12/17 17:41:09;;;;;;;14.75;6.75;;;;;;;5.74;73.09;101875.75;5069773;28;20095;-81
2022/12/17 17:43:34;;;;;;;10.18;7.00;;;;;;;5.88;72.96;101892.75;5052880;28;20108;-81
2022/12/17 17:46:27;;;;;;;11.10;6.15;;;;;;;5.99;73.08;101920.06;5053254;28;20036;-81
2022/12/17 17:48:54;;;;;;;13.73;7.03;;;;;;;5.99;73.19;101920.06;5067967;28;20124;-81
2022/12/17 17:51:21;;;;;;;12.65;6.88;;;;;;;5.81;73.45;101906.53;5053063;28;20033;-81
2022/12/17 17:53:48;;;;;;;14.15;8.93;;;;;;;6.00;73.43;101929.50;5052367;28;20390;-82
2022/12/17 17:56:15;;;;;;;9.90;6.10;;;;;;;6.00;73.06;101933.78;5052927;28;20028;-83
2022/12/17 17:58:46;;;;;;;12.73;7.47;;;;;;;5.86;73.10;101910.75;5036328;28;20020;-81
2022/12/17 18:01:12;;;;;;;11.68;5.13;;;;;;;5.72;73.22;101905.75;5053024;28;20036;-81
2022/12/17 18:03:38;;;;;;;14.98;9.60;;;;;;;5.84;73.14;101937.31;5069754;28;20057;-81
2022/12/17 18:06:06;;;;;;;9.80;6.03;;;;;;;5.97;72.93;101962.06;5052828;28;20028;-81
2022/12/17 18:08:31;;;;;;;12.95;7.05;;;;;;;5.92;73.19;101956.13;5036056;28;20078;-81
2022/12/17 18:10:57;;;;;;;9.70;5.50;;;;;;;5.87;72.99;101958.69;5069476;28;20064;-81
2022/12/17 18:16:06;;;;;;;7.43;4.70;;;;;;;5.85;73.76;101978.38;5055125;28;20039;-81
2022/12/17 18:18:32;;;;;;;22.73;4.50;;;;;;;5.82;73.82;101978.41;5052333;28;20049;-81
2022/12/17 18:21:05;;;;;;;12.95;8.00;;;;;;;5.85;73.67;101965.53;5052474;28;20085;-81
2022/12/17 18:23:31;;;;;;;12.93;8.27;;;;;;;5.85;73.74;101968.13;5052226;28;20025;-81
2022/12/17 18:26:03;;;;;;;9.88;5.43;;;;;;;5.70;73.93;101971.66;5052579;28;20017;-82
2022/12/17 18:28:29;;;;;;;14.75;9.35;;;;;;;5.64;74.14;101981.13;5052665;28;20108;-81
2022/12/17 18:30:54;;;;;;;14.15;6.88;;;;;;;5.71;74.31;101985.34;5068884;28;20119;-81
2022/12/17 18:33:19;;;;;;;13.10;7.88;;;;;;;5.69;73.76;101974.22;5069300;28;20035;-81
2022/12/17 18:35:45;;;;;;;20.35;8.20;;;;;;;5.66;74.00;101975.09;5035880;28;20028;-81
2022/12/17 18:38:11;;;;;;;12.10;8.32;;;;;;;5.73;73.58;101983.63;5051918;28;20024;-81
2022/12/17 18:40:36;;;;;;;10.50;5.38;;;;;;;5.77;73.32;101993.00;5052408;28;20025;-81
2022/12/17 18:45:45;;;;;;;11.02;6.10;;;;;;;5.73;73.60;101999.03;5068985;28;20464;-81
2022/12/17 18:48:11;;;;;;;8.52;7.10;;;;;;;5.72;73.82;101994.75;5052129;28;20024;-80
2022/12/17 18:50:36;;;;;;;11.23;7.57;;;;;;;5.62;74.01;101990.56;5035658;28;20056;-81
2022/12/17 18:53:02;;;;;;;14.02;9.73;;;;;;;5.74;73.51;102013.56;5051650;28;20062;-81
2022/12/17 18:55:27;;;;;;;8.02;6.00;;;;;;;5.69;73.82;102018.72;5068975;28;20029;-81
2022/12/17 18:57:54;;;;;;;15.45;7.43;;;;;;;5.53;73.76;102008.56;5051760;28;20036;-81
2022/12/17 19:00:20;;;;;;;17.08;8.32;;;;;;;5.61;74.15;102042.75;5054841;28;20039;-81
2022/12/17 19:02:45;;;;;;;16.05;9.18;;;;;;;5.51;73.67;102015.44;5072383;28;20112;-81
2022/12/17 19:05:11;;;;;;;13.27;6.28;;;;;;;5.69;73.88;102034.13;5056019;28;20029;-81
2022/12/17 19:07:36;;;;;;;11.02;7.32;;;;;;;5.64;73.92;102032.47;5072011;28;20032;-81
2022/12/17 19:10:02;;;;;;;12.32;7.38;;;;;;;5.71;74.16;102049.53;5072509;28;20935;-82
2022/12/17 19:12:28;;;;;;;16.73;10.15;;;;;;;5.46;73.95;102020.59;5072471;28;20055;-81
2022/12/17 19:14:53;;;;;;;13.45;9.98;;;;;;;5.53;73.96;102037.66;5072484;28;20070;-81
2022/12/17 19:17:19;;;;;;;13.35;8.57;;;;;;;5.61;73.41;102043.63;5071952;28;20040;-81
2022/12/17 19:19:44;;;;;;;17.38;9.27;;;;;;;5.57;73.09;102041.06;5072270;28;20103;-81
2022/12/17 19:22:10;;;;;;;29.50;8.07;;;;;;;5.76;73.58;102068.34;5055189;28;20028;-81
2022/12/17 19:24:35;;;;;;;11.90;7.45;;;;;;;5.65;73.61;102063.25;5072289;28;20387;-82
2022/12/17 19:27:01;;;;;;;8.45;5.70;;;;;;;5.23;73.89;102010.44;5072220;28;20032;-81
2022/12/17 19:29:26;;;;;;;13.60;7.32;;;;;;;5.38;74.03;102064.25;5072163;28;20050;-81
2022/12/17 19:31:52;;;;;;;13.52;7.72;;;;;;;5.32;74.23;102066.00;5055459;28;20044;-81
2022/12/17 19:34:17;;;;;;;25.55;7.22;;;;;;;5.29;74.97;102076.25;5088791;28;20539;-81
2022/12/17 19:36:43;;;;;;;10.48;6.30;;;;;;;5.42;74.45;102103.59;5071775;28;20116;-81
2022/12/17 19:39:14;;;;;;;10.73;6.93;;;;;;;5.38;74.71;102118.16;5038742;28;20025;-81
2022/12/17 19:41:39;;;;;;;10.57;5.82;;;;;;;5.30;74.78;102109.63;5055153;28;20037;-81
2022/12/17 19:44:06;;;;;;;11.43;6.60;;;;;;;5.34;74.63;102110.47;5071942;28;20031;-81
2022/12/17 19:46:33;;;;;;;8.50;5.38;;;;;;;5.39;74.41;102113.88;5054956;28;20029;-82
2022/12/17 19:48:59;;;;;;;12.65;7.03;;;;;;;5.25;75.16;102085.69;5055401;28;20052;-81
2022/12/17 19:51:25;;;;;;;11.60;7.10;;;;;;;5.33;74.75;102113.91;5055076;28;20067;-82
2022/12/17 19:53:51;;;;;;;8.43;6.90;;;;;;;5.24;74.79;102119.91;5038532;28;20032;-81
2022/12/17 19:56:19;;;;;;;8.80;5.00;;;;;;;5.21;75.08;102132.75;5071413;28;20123;-81
2022/12/17 19:58:46;;;;;;;7.97;5.32;;;;;;;5.28;74.74;102141.28;5071596;28;20504;-81
2022/12/17 20:01:13;;;;;;;8.20;5.32;;;;;;;5.34;74.57;102134.41;5054892;28;20075;-81
2022/12/17 20:03:39;;;;;;;9.40;6.82;;;;;;;5.33;74.62;102142.97;5038094;28;20032;-81
2022/12/17 20:06:06;;;;;;;9.07;4.18;;;;;;;5.28;74.28;102138.72;5038287;28;20567;-81
2022/12/17 20:08:31;;;;;;;9.93;6.75;;;;;;;5.26;75.00;102153.25;5071623;28;20032;-81
2022/12/17 20:10:58;;;;;;;10.93;6.85;;;;;;;5.16;74.86;102142.16;5053269;28;20024;-81
2022/12/17 20:13:24;;;;;;;10.50;6.55;;;;;;;5.24;74.43;102165.25;5072232;28;20532;-81
2022/12/17 20:16:00;;;;;;;9.32;4.20;;;;;;;5.25;74.43;102157.53;5071068;28;20056;-81
2022/12/17 20:18:26;;;;;;;14.25;5.47;;;;;;;5.12;74.84;102130.22;5054512;28;20416;-81
2022/12/17 20:20:51;;;;;;;7.75;6.22;;;;;;;5.27;74.74;102157.53;5071008;28;20037;-81
2022/12/17 20:23:20;;;;;;;13.27;6.50;;;;;;;5.28;74.15;102167.78;5054434;28;20028;-81
2022/12/17 20:25:45;;;;;;;16.23;6.70;;;;;;;5.30;74.14;102175.47;5054722;28;20499;-81
2022/12/17 20:28:11;;;;;;;10.55;4.75;;;;;;;5.33;74.55;102171.22;5037850;28;20115;-81
2022/12/17 20:30:37;;;;;;;6.43;5.13;;;;;;;5.36;73.90;102172.91;5070721;28;20418;-81
2022/12/17 20:33:03;;;;;;;10.68;6.18;;;;;;;5.30;74.19;102171.19;5037256;28;20047;-80
2022/12/17 20:35:28;;;;;;;10.25;6.00;;;;;;;5.32;73.92;102184.06;5070950;28;20029;-81
2022/12/17 20:37:54;;;;;;;7.38;4.30;;;;;;;5.35;73.58;102166.94;5070581;28;20042;-81
2022/12/17 20:40:19;;;;;;;13.30;6.72;;;;;;;5.39;74.50;102180.59;5071130;28;20502;-81
2022/12/17 20:42:45;;;;;;;9.50;7.35;;;;;;;5.44;74.33;102197.69;5071160;28;20048;-80
2022/12/17 20:45:10;;;;;;;7.93;4.90;;;;;;;5.50;74.06;102193.38;5070760;28;20037;-81
2022/12/17 20:47:36;;;;;;;10.38;5.07;;;;;;;5.46;73.71;102195.97;5053751;28;20029;-81
2022/12/17 20:50:01;;;;;;;9.90;5.75;;;;;;;5.40;73.97;102205.41;5070672;28;20039;-81
2022/12/17 20:52:26;;;;;;;15.90;7.55;;;;;;;5.26;74.10;102190.03;5053699;28;20416;-81
2022/12/17 20:54:52;;;;;;;8.77;4.60;;;;;;;5.36;74.26;102198.56;5070226;28;20488;-81
2022/12/17 20:57:17;;;;;;;9.75;4.88;;;;;;;5.30;74.96;102190.88;5053636;28;20111;-81
2022/12/17 20:59:43;;;;;;;14.68;5.93;;;;;;;5.37;74.09;102207.97;5070483;28;20044;-81
2022/12/17 21:02:09;;;;;;;9.88;5.13;;;;;;;5.36;74.07;102207.13;5071635;28;20437;-81
2022/12/17 21:04:34;;;;;;;11.52;7.25;;;;;;;5.29;73.62;102194.31;5070257;28;20024;-81
2022/12/17 21:07:00;;;;;;;7.15;4.25;;;;;;;5.40;73.05;102213.09;5053749;28;20024;-81
2022/12/17 21:09:25;;;;;;;5.07;3.28;;;;;;;5.30;73.32;102202.00;5036955;28;20497;-81
2022/12/17 21:11:51;;;;;;;8.02;5.75;;;;;;;5.29;73.46;102210.56;5053741;28;20749;-81
2022/12/17 21:14:17;;;;;;;9.30;5.70;;;;;;;5.34;73.56;102213.97;5069842;28;20418;-81
2022/12/17 21:16:42;;;;;;;14.00;5.93;;;;;;;5.46;72.95;102223.34;5069751;28;20078;-81
2022/12/17 21:19:10;;;;;;;6.63;3.88;;;;;;;5.38;73.04;102210.53;5053231;28;20044;-81
2022/12/17 21:21:36;;;;;;;14.18;7.25;;;;;;;5.36;72.82;102222.53;5053020;28;20024;-82
2022/12/17 21:24:02;;;;;;;8.35;3.80;;;;;;;5.43;72.72;102226.78;5069710;28;20508;-81
2022/12/17 21:26:30;;;;;;;6.47;3.78;;;;;;;5.44;72.90;102225.94;5053094;28;20025;-81
2022/12/17 21:28:59;;;;;;;9.25;6.40;;;;;;;5.45;72.63;102212.25;5053571;28;20441;-81
2022/12/17 21:31:37;;;;;;;13.07;4.85;;;;;;;5.40;72.83;102219.06;5053286;28;20031;-81
2022/12/17 21:34:04;;;;;;;4.95;3.92;;;;;;;5.35;73.39;102205.41;5069842;28;20501;-81
2022/12/17 21:36:30;;;;;;;4.97;3.80;;;;;;;5.26;73.20;102207.16;5069466;28;20402;-80
2022/12/17 21:38:56;;;;;;;7.32;4.18;;;;;;;5.23;73.45;102215.72;5053198;28;20529;-81
2022/12/17 21:41:25;;;;;;;9.55;3.28;;;;;;;5.20;73.35;102202.88;5052898;28;20058;-80
2022/12/17 21:43:52;;;;;;;15.75;9.23;;;;;;;5.23;73.36;102225.97;5069494;28;20459;-81
2022/12/17 21:46:18;;;;;;;5.88;4.97;;;;;;;5.09;73.41;102207.16;5053034;28;20028;-81
2022/12/17 21:48:43;;;;;;;6.18;4.00;;;;;;;5.24;73.35;102227.69;5036325;28;20035;-81
2022/12/17 21:51:10;;;;;;;7.10;4.72;;;;;;;5.31;73.12;102234.53;5052938;28;20025;-81
2022/12/17 21:53:40;;;;;;;8.63;6.55;;;;;;;5.20;73.50;102231.09;5036251;28;20501;-81
2022/12/17 21:56:08;;;;;;;4.32;3.55;;;;;;;5.23;72.93;102240.53;5053386;28;20382;-81
2022/12/17 21:58:33;;;;;;;9.18;6.80;;;;;;;5.04;73.70;102227.69;5053036;28;20482;-81
2022/12/17 22:01:13;;;;;;;7.43;4.15;;;;;;;5.12;73.03;102253.34;5036014;28;20067;-81
2022/12/17 22:03:39;;;;;;;10.80;7.35;;;;;;;5.08;73.51;102247.34;5053559;28;20035;-81
2022/12/17 22:06:06;;;;;;;11.88;5.45;;;;;;;5.13;73.10;102266.19;5069571;28;20417;-81
2022/12/17 22:08:32;;;;;;;9.32;7.18;;;;;;;4.86;73.65;102241.38;5052788;28;20039;-81
2022/12/17 22:10:57;;;;;;;9.20;7.05;;;;;;;4.99;73.56;102251.63;5069172;28;20024;-81
2022/12/17 22:16:07;;;;;;;17.33;7.63;;;;;;;5.03;73.68;102276.44;5070032;28;20165;-81
2022/12/17 22:18:33;;;;;;;9.05;6.13;;;;;;;4.76;73.19;102233.69;5069235;28;20052;-81
2022/12/17 22:20:58;;;;;;;11.23;7.47;;;;;;;4.95;73.85;102266.19;5070197;28;20486;-81
2022/12/17 22:23:24;;;;;;;12.05;6.65;;;;;;;4.85;73.28;102252.50;5052748;28;20112;-81
2022/12/17 22:25:49;;;;;;;15.73;7.43;;;;;;;4.79;73.45;102249.06;5052656;28;20025;-81
2022/12/17 22:28:15;;;;;;;9.85;5.40;;;;;;;4.88;73.30;102255.03;5035862;28;20090;-81
2022/12/17 22:33:24;;;;;;;13.15;6.95;;;;;;;5.01;73.25;102273.00;5054932;28;20090;-81
2022/12/17 22:35:50;;;;;;;10.13;7.57;;;;;;;4.88;73.02;102242.22;5039683;28;20024;-81
2022/12/17 22:38:15;;;;;;;14.30;8.30;;;;;;;5.08;72.60;102267.88;5056412;28;20477;-81
2022/12/17 22:40:41;;;;;;;14.88;6.88;;;;;;;4.82;72.45;102219.16;5056343;28;20024;-81
2022/12/17 22:45:56;;;;;;;10.25;5.63;;;;;;;5.04;72.51;102255.91;5072961;28;20040;-81
2022/12/17 22:48:22;;;;;;;9.82;6.45;;;;;;;5.03;72.45;102255.91;5056652;28;20097;-81
2022/12/17 22:50:47;;;;;;;7.75;6.40;;;;;;;5.10;72.31;102286.69;5039603;28;20478;-81
2022/12/17 22:53:12;;;;;;;9.80;4.65;;;;;;;5.06;71.97;102289.25;5055870;28;20028;-81
2022/12/17 22:55:38;;;;;;;15.55;5.95;;;;;;;5.04;71.85;102298.66;5056111;28;20535;-80
2022/12/17 22:58:03;;;;;;;12.50;7.13;;;;;;;4.90;72.63;102286.66;5055736;28;20032;-81
2022/12/17 23:00:30;;;;;;;7.80;5.70;;;;;;;4.95;73.11;102298.66;5056032;28;20032;-80
2022/12/17 23:02:56;;;;;;;7.97;5.75;;;;;;;4.93;72.94;102290.97;5056093;28;20548;-81
2022/12/17 23:05:22;;;;;;;10.73;6.20;;;;;;;4.99;73.02;102290.09;5072302;28;20032;-80
2022/12/17 23:07:48;;;;;;;14.38;5.88;;;;;;;5.08;73.15;102297.81;5056304;28;20086;-81
2022/12/17 23:10:14;;;;;;;8.40;5.93;;;;;;;5.03;72.65;102297.81;5056088;28;20033;-82
2022/12/17 23:12:52;;;;;;;9.00;5.85;;;;;;;4.87;71.51;102267.88;5055254;28;20051;-81
2022/12/17 23:15:29;;;;;;;13.90;7.55;;;;;;;4.74;71.52;102277.28;5072444;28;20032;-81
2022/12/17 23:17:56;;;;;;;10.73;7.03;;;;;;;4.84;71.13;102309.75;5039817;28;20135;-81
2022/12/17 23:20:22;;;;;;;7.72;5.32;;;;;;;4.79;71.36;102320.84;5055752;28;20486;-81
2022/12/17 23:22:47;;;;;;;14.32;7.32;;;;;;;4.62;71.87;102302.84;5072351;28;20032;-81
2022/12/17 23:25:13;;;;;;;14.52;8.70;;;;;;;4.73;71.59;102321.72;5055620;28;20036;-80
2022/12/17 23:27:42;;;;;;;10.32;6.20;;;;;;;4.71;72.59;102331.09;5055343;28;20068;-81
2022/12/17 23:30:09;;;;;;;10.55;6.10;;;;;;;4.71;72.15;102331.09;5072219;28;20035;-81
2022/12/17 23:32:34;;;;;;;17.15;7.78;;;;;;;4.72;72.34;102335.38;5055773;28;20021;-81
2022/12/17 23:35:00;;;;;;;8.88;6.05;;;;;;;4.80;71.56;102335.38;5071882;28;20044;-81
2022/12/17 23:37:25;;;;;;;14.25;6.93;;;;;;;4.71;71.73;102330.22;5072100;28;20036;-81
2022/12/17 23:39:51;;;;;;;13.27;6.78;;;;;;;4.68;71.76;102331.09;5055404;28;20035;-81
2022/12/17 23:42:16;;;;;;;10.73;6.35;;;;;;;4.55;71.52;102331.91;5071982;28;20086;-80
2022/12/17 23:44:42;;;;;;;9.73;5.82;;;;;;;4.60;71.79;102336.19;5072890;28;20028;-80
2022/12/17 23:47:08;;;;;;;16.50;7.15;;;;;;;4.46;71.92;102327.59;5055085;28;20032;-81
2022/12/17 23:49:33;;;;;;;15.25;4.50;;;;;;;4.47;71.97;102339.56;5038555;28;20543;-81
2022/12/17 23:51:59;;;;;;;22.95;7.78;;;;;;;4.52;71.85;102347.25;5055075;28;20033;-81
2022/12/17 23:54:24;;;;;;;8.82;5.50;;;;;;;4.44;71.77;102343.84;5071695;28;20039;-81
2022/12/17 23:56:50;;;;;;;2.40;1.88;;;;;;;4.41;71.80;102343.81;5072243;28;20110;-81
2022/12/17 23:59:15;;;;;;;9.70;7.10;;;;;;;4.46;71.57;102344.69;5054934;28;20025;-81
